sensor_id;sensor_type;location;lat;lon;timestamp;pressure;altitude;pressure_sealevel;temperature;humidity
13011;BME280;6786;57.632;11.962;2024-03-08T00:00:18;102190.22;;;18.18;38.63
13011;BME280;6786;57.632;11.962;2024-03-08T00:02:47;102190.22;;;18.18;38.55
13011;BME280;6786;57.632;11.962;2024-03-08T00:05:18;102190.41;;;18.15;38.60
13011;BME280;6786;57.632;11.962;2024-03-08T00:07:46;102189.34;;;18.17;38.49
13011;BME280;6786;57.632;11.962;2024-03-08T00:10:14;102169.56;;;18.06;38.57
13011;BME280;6786;57.632;11.962;2024-03-08T00:12:44;102190.22;;;18.18;38.50
13011;BME280;6786;57.632;11.962;2024-03-08T00:15:15;102185.03;;;18.15;38.47
13011;BME280;6786;57.632;11.962;2024-03-08T00:17:47;102182.97;;;18.20;38.55
13011;BME280;6786;57.632;11.962;2024-03-08T00:20:16;102186.38;;;18.22;38.54
13011;BME280;6786;57.632;11.962;2024-03-08T00:22:46;102184.66;;;18.21;38.26
13011;BME280;6786;57.632;11.962;2024-03-08T00:25:15;102182.75;;;18.23;38.46
13011;BME280;6786;57.632;11.962;2024-03-08T00:27:43;102186.38;;;18.22;38.41
13011;BME280;6786;57.632;11.962;2024-03-08T00:30:12;102187.25;;;18.22;38.36
13011;BME280;6786;57.632;11.962;2024-03-08T00:32:41;102178.34;;;18.22;38.40
13011;BME280;6786;57.632;11.962;2024-03-08T00:35:11;102175.69;;;18.22;38.29
13011;BME280;6786;57.632;11.962;2024-03-08T00:37:39;102167.09;;;18.17;38.34
13011;BME280;6786;57.632;11.962;2024-03-08T00:40:09;102178.34;;;18.22;38.37
13011;BME280;6786;57.632;11.962;2024-03-08T00:42:38;102096.91;;;17.70;38.35
13011;BME280;6786;57.632;11.962;2024-03-08T00:45:07;102007.22;;;17.20;38.48
13011;BME280;6786;57.632;11.962;2024-03-08T00:47:37;102095.00;;;17.72;38.37
13011;BME280;6786;57.632;11.962;2024-03-08T00:50:08;102091.06;;;17.77;38.33
13011;BME280;6786;57.632;11.962;2024-03-08T00:52:38;102152.75;;;18.18;38.39
13011;BME280;6786;57.632;11.962;2024-03-08T00:55:07;102165.84;;;18.22;38.28
13011;BME280;6786;57.632;11.962;2024-03-08T00:57:37;102165.84;;;18.22;38.29
13011;BME280;6786;57.632;11.962;2024-03-08T01:00:07;102099.00;;;17.79;38.36
13011;BME280;6786;57.632;11.962;2024-03-08T01:02:39;102013.06;;;17.27;38.30
13011;BME280;6786;57.632;11.962;2024-03-08T01:05:08;102170.31;;;18.22;38.33
13011;BME280;6786;57.632;11.962;2024-03-08T01:07:38;102172.25;;;18.20;38.32
13011;BME280;6786;57.632;11.962;2024-03-08T01:10:07;102051.63;;;17.52;38.38
13011;BME280;6786;57.632;11.962;2024-03-08T01:12:37;102166.91;;;18.20;38.39
13011;BME280;6786;57.632;11.962;2024-03-08T01:15:06;102072.28;;;17.65;38.18
13011;BME280;6786;57.632;11.962;2024-03-08T01:17:35;102091.16;;;17.76;38.16
13011;BME280;6786;57.632;11.962;2024-03-08T01:20:05;102065.19;;;17.63;38.26
13011;BME280;6786;57.632;11.962;2024-03-08T01:22:33;102059.09;;;17.76;38.21
13011;BME280;6786;57.632;11.962;2024-03-08T01:25:04;102134.78;;;18.20;38.13
13011;BME280;6786;57.632;11.962;2024-03-08T01:27:32;102136.69;;;18.18;38.14
13011;BME280;6786;57.632;11.962;2024-03-08T01:30:02;102134.56;;;18.23;38.06
13011;BME280;6786;57.632;11.962;2024-03-08T01:32:31;102125.97;;;18.18;38.10
13011;BME280;6786;57.632;11.962;2024-03-08T01:35:00;102125.22;;;18.16;38.12
13011;BME280;6786;57.632;11.962;2024-03-08T01:37:29;102119.13;;;18.14;38.02
13011;BME280;6786;57.632;11.962;2024-03-08T01:39:58;102120.53;;;18.19;38.05
13011;BME280;6786;57.632;11.962;2024-03-08T01:42:27;102060.41;;;17.83;38.09
13011;BME280;6786;57.632;11.962;2024-03-08T01:44:56;102087.78;;;18.02;38.18
13011;BME280;6786;57.632;11.962;2024-03-08T01:47:24;102121.19;;;18.23;38.00
13011;BME280;6786;57.632;11.962;2024-03-08T01:49:53;102120.25;;;18.24;38.01
13011;BME280;6786;57.632;11.962;2024-03-08T01:52:21;102119.38;;;18.23;37.97
13011;BME280;6786;57.632;11.962;2024-03-08T01:54:50;102113.16;;;18.23;37.99
13011;BME280;6786;57.632;11.962;2024-03-08T01:57:19;102098.84;;;18.24;38.01
13011;BME280;6786;57.632;11.962;2024-03-08T01:59:48;102103.31;;;18.23;38.08
13011;BME280;6786;57.632;11.962;2024-03-08T02:02:18;102103.31;;;18.23;37.96
13011;BME280;6786;57.632;11.962;2024-03-08T02:04:47;102031.97;;;17.82;37.96
13011;BME280;6786;57.632;11.962;2024-03-08T02:07:17;102101.63;;;18.22;38.11
13011;BME280;6786;57.632;11.962;2024-03-08T02:09:46;102009.44;;;17.72;37.88
13011;BME280;6786;57.632;11.962;2024-03-08T02:12:14;102086.81;;;18.17;38.12
13011;BME280;6786;57.632;11.962;2024-03-08T02:14:42;102096.25;;;18.22;38.00
13011;BME280;6786;57.632;11.962;2024-03-08T02:17:13;102100.75;;;18.22;37.97
13011;BME280;6786;57.632;11.962;2024-03-08T02:19:41;102094.66;;;18.20;37.98
13011;BME280;6786;57.632;11.962;2024-03-08T02:22:11;102080.09;;;18.10;38.06
13011;BME280;6786;57.632;11.962;2024-03-08T02:24:39;102108.88;;;18.20;37.84
13011;BME280;6786;57.632;11.962;2024-03-08T02:27:07;102094.53;;;18.21;37.97
13011;BME280;6786;57.632;11.962;2024-03-08T02:29:39;102088.34;;;18.21;37.97
13011;BME280;6786;57.632;11.962;2024-03-08T02:32:08;102084.69;;;18.22;37.85
13011;BME280;6786;57.632;11.962;2024-03-08T02:34:36;102087.38;;;18.22;37.82
13011;BME280;6786;57.632;11.962;2024-03-08T02:37:04;102091.75;;;18.23;37.88
13011;BME280;6786;57.632;11.962;2024-03-08T02:39:34;102085.56;;;18.22;38.00
13011;BME280;6786;57.632;11.962;2024-03-08T02:42:02;101999.69;;;17.71;37.78
13011;BME280;6786;57.632;11.962;2024-03-08T02:44:31;102084.69;;;18.22;37.91
13011;BME280;6786;57.632;11.962;2024-03-08T02:47:00;102077.63;;;18.21;37.89
13011;BME280;6786;57.632;11.962;2024-03-08T02:49:28;102072.28;;;18.21;37.93
13011;BME280;6786;57.632;11.962;2024-03-08T02:51:57;102070.56;;;18.20;37.85
13011;BME280;6786;57.632;11.962;2024-03-08T02:54:25;102063.66;;;18.16;37.77
13011;BME280;6786;57.632;11.962;2024-03-08T02:56:55;102073.25;;;18.20;37.87
13011;BME280;6786;57.632;11.962;2024-03-08T02:59:23;102066.06;;;18.20;37.85
13011;BME280;6786;57.632;11.962;2024-03-08T03:01:51;102058.31;;;18.16;37.92
13011;BME280;6786;57.632;11.962;2024-03-08T03:04:20;102061.75;;;18.18;37.86
13011;BME280;6786;57.632;11.962;2024-03-08T03:06:48;102045.91;;;18.15;37.64
13011;BME280;6786;57.632;11.962;2024-03-08T03:09:16;102055.34;;;18.20;37.83
13011;BME280;6786;57.632;11.962;2024-03-08T03:11:50;102042.25;;;18.16;37.71
13011;BME280;6786;57.632;11.962;2024-03-08T03:14:20;102066.91;;;18.21;37.80
13011;BME280;6786;57.632;11.962;2024-03-08T03:16:48;101989.56;;;17.76;37.80
13011;BME280;6786;57.632;11.962;2024-03-08T03:19:16;102061.56;;;18.21;37.89
13011;BME280;6786;57.632;11.962;2024-03-08T03:21:45;101984.88;;;17.79;37.79
13011;BME280;6786;57.632;11.962;2024-03-08T03:24:13;102057.19;;;18.20;37.76
13011;BME280;6786;57.632;11.962;2024-03-08T03:26:43;101979.44;;;17.67;37.64
13011;BME280;6786;57.632;11.962;2024-03-08T03:29:12;102038.84;;;18.14;37.70
13011;BME280;6786;57.632;11.962;2024-03-08T03:31:43;102036.16;;;18.14;37.67
13011;BME280;6786;57.632;11.962;2024-03-08T03:34:13;101992.25;;;17.90;37.66
13011;BME280;6786;57.632;11.962;2024-03-08T03:36:42;102038.66;;;18.17;37.71
13011;BME280;6786;57.632;11.962;2024-03-08T03:39:11;102042.84;;;18.21;37.76
13011;BME280;6786;57.632;11.962;2024-03-08T03:41:43;102038.66;;;18.17;37.74
13011;BME280;6786;57.632;11.962;2024-03-08T03:44:14;102040.16;;;18.21;37.59
13011;BME280;6786;57.632;11.962;2024-03-08T03:46:43;101970.06;;;17.74;37.71
13011;BME280;6786;57.632;11.962;2024-03-08T03:49:12;102033.28;;;18.17;37.61
13011;BME280;6786;57.632;11.962;2024-03-08T03:51:40;102033.09;;;18.20;37.63
13011;BME280;6786;57.632;11.962;2024-03-08T03:54:09;102033.28;;;18.17;37.76
13011;BME280;6786;57.632;11.962;2024-03-08T03:56:37;102033.19;;;18.18;37.71
13011;BME280;6786;57.632;11.962;2024-03-08T03:59:07;102031.75;;;18.13;37.82
13011;BME280;6786;57.632;11.962;2024-03-08T04:01:35;102026.78;;;18.07;37.74
13011;BME280;6786;57.632;11.962;2024-03-08T04:04:06;102031.56;;;18.16;37.56
13011;BME280;6786;57.632;11.962;2024-03-08T04:06:35;102027.94;;;18.17;37.58
13011;BME280;6786;57.632;11.962;2024-03-08T04:09:03;102035.19;;;18.15;37.76
13011;BME280;6786;57.632;11.962;2024-03-08T04:11:32;102027.06;;;18.16;37.63
13011;BME280;6786;57.632;11.962;2024-03-08T04:14:00;102032.31;;;18.18;37.53
13011;BME280;6786;57.632;11.962;2024-03-08T04:16:28;102018.94;;;18.18;37.49
13011;BME280;6786;57.632;11.962;2024-03-08T04:18:57;102012.09;;;18.14;37.52
13011;BME280;6786;57.632;11.962;2024-03-08T04:21:26;102022.59;;;18.17;37.49
13011;BME280;6786;57.632;11.962;2024-03-08T04:23:55;102025.25;;;18.17;37.51
13011;BME280;6786;57.632;11.962;2024-03-08T04:26:23;102024.31;;;18.18;37.58
13011;BME280;6786;57.632;11.962;2024-03-08T04:28:52;102026.97;;;18.18;37.54
13011;BME280;6786;57.632;11.962;2024-03-08T04:31:22;102019.81;;;18.18;37.60
13011;BME280;6786;57.632;11.962;2024-03-08T04:33:50;102011.69;;;18.20;37.56
13011;BME280;6786;57.632;11.962;2024-03-08T04:36:18;102001.38;;;18.14;37.57
13011;BME280;6786;57.632;11.962;2024-03-08T04:38:48;102008.25;;;18.18;37.65
13011;BME280;6786;57.632;11.962;2024-03-08T04:41:16;101896.59;;;17.52;37.53
13011;BME280;6786;57.632;11.962;2024-03-08T04:43:45;102003.66;;;18.20;37.34
13011;BME280;6786;57.632;11.962;2024-03-08T04:46:13;101985.53;;;18.11;37.40
13011;BME280;6786;57.632;11.962;2024-03-08T04:48:42;101975.22;;;18.05;37.34
13011;BME280;6786;57.632;11.962;2024-03-08T04:51:11;101918.91;;;17.66;37.43
13011;BME280;6786;57.632;11.962;2024-03-08T04:53:39;101994.75;;;18.19;37.32
13011;BME280;6786;57.632;11.962;2024-03-08T04:56:09;101990.28;;;18.20;37.38
13011;BME280;6786;57.632;11.962;2024-03-08T04:58:37;101997.44;;;18.19;37.45
13011;BME280;6786;57.632;11.962;2024-03-08T05:01:05;101918.31;;;17.75;37.41
13011;BME280;6786;57.632;11.962;2024-03-08T05:03:37;101986.84;;;18.18;37.51
13011;BME280;6786;57.632;11.962;2024-03-08T05:06:06;101991.13;;;18.20;37.49
13011;BME280;6786;57.632;11.962;2024-03-08T05:08:35;101991.03;;;18.22;37.59
13011;BME280;6786;57.632;11.962;2024-03-08T05:11:03;101986.75;;;18.19;37.56
13011;BME280;6786;57.632;11.962;2024-03-08T05:13:35;101988.16;;;18.25;37.36
13011;BME280;6786;57.632;11.962;2024-03-08T05:16:04;101928.44;;;17.84;37.59
13011;BME280;6786;57.632;11.962;2024-03-08T05:18:34;101988.16;;;18.25;37.51
13011;BME280;6786;57.632;11.962;2024-03-08T05:21:03;101986.44;;;18.24;37.47
13011;BME280;6786;57.632;11.962;2024-03-08T05:23:31;101992.00;;;18.21;37.56
13011;BME280;6786;57.632;11.962;2024-03-08T05:26:01;101987.59;;;18.20;37.52
13011;BME280;6786;57.632;11.962;2024-03-08T05:28:30;101967.09;;;18.06;37.58
13011;BME280;6786;57.632;11.962;2024-03-08T05:31:00;101981.50;;;18.18;37.53
13011;BME280;6786;57.632;11.962;2024-03-08T05:33:28;101979.97;;;18.14;37.68
13011;BME280;6786;57.632;11.962;2024-03-08T05:35:57;101951.72;;;17.96;37.53
13011;BME280;6786;57.632;11.962;2024-03-08T05:38:26;101985.13;;;18.17;37.46
13011;BME280;6786;57.632;11.962;2024-03-08T05:40:54;101987.03;;;18.15;37.47
13011;BME280;6786;57.632;11.962;2024-03-08T05:43:23;101989.72;;;18.15;37.55
13011;BME280;6786;57.632;11.962;2024-03-08T05:45:51;101972.25;;;18.09;37.68
13011;BME280;6786;57.632;11.962;2024-03-08T05:48:21;101985.13;;;18.17;37.67
13011;BME280;6786;57.632;11.962;2024-03-08T05:50:49;101962.78;;;18.04;37.86
13011;BME280;6786;57.632;11.962;2024-03-08T05:53:17;101983.19;;;18.19;37.59
13011;BME280;6786;57.632;11.962;2024-03-08T05:55:46;101903.03;;;17.77;37.56
13011;BME280;6786;57.632;11.962;2024-03-08T05:58:14;101985.13;;;18.17;37.46
13011;BME280;6786;57.632;11.962;2024-03-08T06:00:42;101983.28;;;18.17;37.46
13011;BME280;6786;57.632;11.962;2024-03-08T06:03:12;101965.25;;;18.07;37.42
13011;BME280;6786;57.632;11.962;2024-03-08T06:05:41;101961.53;;;18.09;37.58
13011;BME280;6786;57.632;11.962;2024-03-08T06:08:09;101914.50;;;17.79;37.42
13011;BME280;6786;57.632;11.962;2024-03-08T06:10:38;101975.16;;;18.19;37.56
13011;BME280;6786;57.632;11.962;2024-03-08T06:13:06;101974.31;;;18.18;37.49
13011;BME280;6786;57.632;11.962;2024-03-08T06:15:35;101981.50;;;18.18;37.41
13011;BME280;6786;57.632;11.962;2024-03-08T06:18:03;101974.22;;;18.20;37.31
13011;BME280;6786;57.632;11.962;2024-03-08T06:20:33;101902.09;;;17.78;37.38
13011;BME280;6786;57.632;11.962;2024-03-08T06:23:03;101971.41;;;18.21;37.47
13011;BME280;6786;57.632;11.962;2024-03-08T06:25:31;101980.22;;;18.23;37.46
13011;BME280;6786;57.632;11.962;2024-03-08T06:27:59;101974.00;;;18.23;37.34
13011;BME280;6786;57.632;11.962;2024-03-08T06:30:27;101975.75;;;18.24;37.40
13011;BME280;6786;57.632;11.962;2024-03-08T06:32:55;101976.56;;;18.24;37.30
13011;BME280;6786;57.632;11.962;2024-03-08T06:35:24;101977.84;;;18.19;37.48
13011;BME280;6786;57.632;11.962;2024-03-08T06:37:52;101976.13;;;18.18;37.30
13011;BME280;6786;57.632;11.962;2024-03-08T06:40:21;101952.06;;;18.04;37.42
13011;BME280;6786;57.632;11.962;2024-03-08T06:42:49;101977.00;;;18.18;37.32
13011;BME280;6786;57.632;11.962;2024-03-08T06:45:18;101973.47;;;18.18;37.46
13011;BME280;6786;57.632;11.962;2024-03-08T06:47:48;101971.75;;;18.17;37.28
13011;BME280;6786;57.632;11.962;2024-03-08T06:50:16;101974.44;;;18.17;37.37
13011;BME280;6786;57.632;11.962;2024-03-08T06:52:44;101969.06;;;18.17;37.45
13011;BME280;6786;57.632;11.962;2024-03-08T06:55:17;101972.69;;;18.16;37.34
13011;BME280;6786;57.632;11.962;2024-03-08T06:57:47;101966.50;;;18.15;37.41
13011;BME280;6786;57.632;11.962;2024-03-08T07:00:16;101967.53;;;18.13;37.41
13011;BME280;6786;57.632;11.962;2024-03-08T07:02:47;101970.78;;;18.18;37.33
13011;BME280;6786;57.632;11.962;2024-03-08T07:05:16;101968.00;;;18.19;37.35
13011;BME280;6786;57.632;11.962;2024-03-08T07:07:45;101971.75;;;18.17;37.20
13011;BME280;6786;57.632;11.962;2024-03-08T07:10:15;101950.16;;;18.06;37.29
13011;BME280;6786;57.632;11.962;2024-03-08T07:12:44;101980.63;;;18.17;37.25
13011;BME280;6786;57.632;11.962;2024-03-08T07:15:15;101959.59;;;18.11;37.24
13011;BME280;6786;57.632;11.962;2024-03-08T07:17:46;101963.72;;;18.17;37.28
13011;BME280;6786;57.632;11.962;2024-03-08T07:20:15;101962.84;;;18.16;37.39
13011;BME280;6786;57.632;11.962;2024-03-08T07:22:46;101956.19;;;18.09;37.32
13011;BME280;6786;57.632;11.962;2024-03-08T07:25:18;101961.16;;;18.15;37.30
13011;BME280;6786;57.632;11.962;2024-03-08T07:27:50;101972.50;;;18.19;37.17
13011;BME280;6786;57.632;11.962;2024-03-08T07:30:21;101954.72;;;18.18;37.20
13011;BME280;6786;57.632;11.962;2024-03-08T07:33:07;101956.63;;;18.16;37.25
13011;BME280;6786;57.632;11.962;2024-03-08T07:35:39;101963.72;;;18.17;37.24
13011;BME280;6786;57.632;11.962;2024-03-08T07:38:08;101957.41;;;18.18;37.19
13011;BME280;6786;57.632;11.962;2024-03-08T07:40:39;101956.63;;;18.16;37.21
13011;BME280;6786;57.632;11.962;2024-03-08T07:43:11;101956.44;;;18.19;37.22
13011;BME280;6786;57.632;11.962;2024-03-08T07:45:41;101944.03;;;18.18;37.15
13011;BME280;6786;57.632;11.962;2024-03-08T07:48:09;101948.41;;;18.19;37.08
13011;BME280;6786;57.632;11.962;2024-03-08T07:50:38;101937.69;;;18.19;37.23
13011;BME280;6786;57.632;11.962;2024-03-08T07:53:07;101929.34;;;18.11;37.29
13011;BME280;6786;57.632;11.962;2024-03-08T07:55:36;101944.03;;;18.18;37.31
13011;BME280;6786;57.632;11.962;2024-03-08T07:58:06;101943.06;;;18.19;37.22
13011;BME280;6786;57.632;11.962;2024-03-08T08:00:37;101941.44;;;18.16;37.20
13011;BME280;6786;57.632;11.962;2024-03-08T08:03:07;101936.97;;;18.17;37.26
13011;BME280;6786;57.632;11.962;2024-03-08T08:05:36;101934.28;;;18.17;37.25
13011;BME280;6786;57.632;11.962;2024-03-08T08:08:07;101939.63;;;18.17;37.13
13011;BME280;6786;57.632;11.962;2024-03-08T08:10:38;101832.88;;;17.59;37.29
13011;BME280;6786;57.632;11.962;2024-03-08T08:13:06;101933.31;;;18.18;37.17
13011;BME280;6786;57.632;11.962;2024-03-08T08:15:34;101937.69;;;18.19;37.19
13011;BME280;6786;57.632;11.962;2024-03-08T08:18:03;101935.03;;;18.19;37.16
13011;BME280;6786;57.632;11.962;2024-03-08T08:20:35;101933.50;;;18.15;37.26
13011;BME280;6786;57.632;11.962;2024-03-08T08:23:04;101942.31;;;18.17;37.17
13011;BME280;6786;57.632;11.962;2024-03-08T08:25:32;101936.09;;;18.16;37.10
13011;BME280;6786;57.632;11.962;2024-03-08T08:28:02;101849.19;;;17.69;37.09
13011;BME280;6786;57.632;11.962;2024-03-08T08:30:31;101939.63;;;18.17;37.29
13011;BME280;6786;57.632;11.962;2024-03-08T08:33:00;101937.16;;;18.14;37.05
13011;BME280;6786;57.632;11.962;2024-03-08T08:35:29;101949.56;;;18.15;37.08
13011;BME280;6786;57.632;11.962;2024-03-08T08:37:59;101942.31;;;18.17;37.16
13011;BME280;6786;57.632;11.962;2024-03-08T08:40:28;101936.97;;;18.17;37.24
13011;BME280;6786;57.632;11.962;2024-03-08T08:42:57;101929.78;;;18.17;37.08
13011;BME280;6786;57.632;11.962;2024-03-08T08:45:26;101797.38;;;17.29;37.07
13011;BME280;6786;57.632;11.962;2024-03-08T08:47:54;101935.03;;;18.19;37.10
13011;BME280;6786;57.632;11.962;2024-03-08T08:50:23;101926.06;;;18.20;37.16
13011;BME280;6786;57.632;11.962;2024-03-08T08:52:52;101920.72;;;18.20;37.14
13011;BME280;6786;57.632;11.962;2024-03-08T08:55:22;101921.50;;;18.08;37.19
13011;BME280;6786;57.632;11.962;2024-03-08T08:57:53;101931.41;;;18.20;37.08
13011;BME280;6786;57.632;11.962;2024-03-08T09:00:23;101912.97;;;18.15;37.07
13011;BME280;6786;57.632;11.962;2024-03-08T09:02:54;101917.25;;;18.18;37.09
13011;BME280;6786;57.632;11.962;2024-03-08T09:05:25;101924.31;;;18.19;37.11
13011;BME280;6786;57.632;11.962;2024-03-08T09:07:54;101893.22;;;18.04;37.30
13011;BME280;6786;57.632;11.962;2024-03-08T09:10:23;101904.84;;;18.17;37.15
13011;BME280;6786;57.632;11.962;2024-03-08T09:12:55;101911.91;;;18.18;37.15
13011;BME280;6786;57.632;11.962;2024-03-08T09:15:23;101908.47;;;18.16;37.06
13011;BME280;6786;57.632;11.962;2024-03-08T09:17:56;101908.25;;;18.19;37.11
13011;BME280;6786;57.632;11.962;2024-03-08T09:20:24;101843.06;;;17.81;36.84
13011;BME280;6786;57.632;11.962;2024-03-08T09:22:52;101902.91;;;18.19;37.24
13011;BME280;6786;57.632;11.962;2024-03-08T09:25:21;101902.91;;;18.19;37.03
13011;BME280;6786;57.632;11.962;2024-03-08T09:27:51;101888.13;;;18.13;37.21
13011;BME280;6786;57.632;11.962;2024-03-08T09:30:19;101893.19;;;18.18;37.23
13011;BME280;6786;57.632;11.962;2024-03-08T09:32:48;101893.94;;;18.20;37.29
13011;BME280;6786;57.632;11.962;2024-03-08T09:35:18;101888.03;;;18.15;37.26
13011;BME280;6786;57.632;11.962;2024-03-08T09:37:47;101890.50;;;18.18;37.13
13011;BME280;6786;57.632;11.962;2024-03-08T09:40:18;101892.22;;;18.19;37.21
13011;BME280;6786;57.632;11.962;2024-03-08T09:42:48;101878.09;;;18.17;37.20
13011;BME280;6786;57.632;11.962;2024-03-08T09:45:20;101883.44;;;18.17;37.17
13011;BME280;6786;57.632;11.962;2024-03-08T09:47:49;101876.25;;;18.17;37.27
13011;BME280;6786;57.632;11.962;2024-03-08T09:50:17;101879.81;;;18.18;37.25
13011;BME280;6786;57.632;11.962;2024-03-08T09:52:48;101874.44;;;18.18;37.31
13011;BME280;6786;57.632;11.962;2024-03-08T09:55:17;101874.44;;;18.18;37.14
13011;BME280;6786;57.632;11.962;2024-03-08T09:57:51;101872.75;;;18.17;37.35
13011;BME280;6786;57.632;11.962;2024-03-08T10:00:40;101871.00;;;18.16;37.34
13011;BME280;6786;57.632;11.962;2024-03-08T10:03:09;101871.00;;;18.16;37.30
13011;BME280;6786;57.632;11.962;2024-03-08T10:05:41;101865.66;;;18.16;37.21
13011;BME280;6786;57.632;11.962;2024-03-08T10:08:11;101860.31;;;18.16;37.18
13011;BME280;6786;57.632;11.962;2024-03-08T10:10:40;101862.03;;;18.17;37.33
13011;BME280;6786;57.632;11.962;2024-03-08T10:13:09;101853.25;;;18.15;37.18
13011;BME280;6786;57.632;11.962;2024-03-08T10:15:40;101854.94;;;18.16;37.17
13011;BME280;6786;57.632;11.962;2024-03-08T10:18:09;101854.00;;;18.17;37.22
13011;BME280;6786;57.632;11.962;2024-03-08T10:20:37;101847.91;;;18.15;37.51
13011;BME280;6786;57.632;11.962;2024-03-08T10:23:06;101849.59;;;18.16;37.41
13011;BME280;6786;57.632;11.962;2024-03-08T10:25:38;101846.00;;;18.17;37.28
13011;BME280;6786;57.632;11.962;2024-03-08T10:28:06;101846.81;;;18.17;37.31
13011;BME280;6786;57.632;11.962;2024-03-08T10:30:34;101850.38;;;18.18;37.18
13011;BME280;6786;57.632;11.962;2024-03-08T10:33:04;101846.00;;;18.17;37.26
13011;BME280;6786;57.632;11.962;2024-03-08T10:35:33;101840.63;;;18.17;37.24
13011;BME280;6786;57.632;11.962;2024-03-08T10:38:04;101673.78;;;17.13;37.48
13011;BME280;6786;57.632;11.962;2024-03-08T10:40:35;101843.22;;;18.18;37.38
13011;BME280;6786;57.632;11.962;2024-03-08T10:43:11;101830.13;;;18.14;37.24
13011;BME280;6786;57.632;11.962;2024-03-08T10:45:46;101837.00;;;18.18;37.36
13011;BME280;6786;57.632;11.962;2024-03-08T10:48:27;101831.63;;;18.18;37.16
13011;BME280;6786;57.632;11.962;2024-03-08T10:51:04;101829.94;;;18.17;37.38
13011;BME280;6786;57.632;11.962;2024-03-08T10:53:34;101828.41;;;18.13;37.41
13011;BME280;6786;57.632;11.962;2024-03-08T10:56:08;101824.59;;;18.17;37.24
13011;BME280;6786;57.632;11.962;2024-03-08T10:58:37;101667.19;;;17.18;37.40
13011;BME280;6786;57.632;11.962;2024-03-08T11:01:06;101826.28;;;18.18;37.33
13011;BME280;6786;57.632;11.962;2024-03-08T11:03:48;101820.94;;;18.18;37.22
13011;BME280;6786;57.632;11.962;2024-03-08T11:06:23;101806.25;;;18.11;37.39
13011;BME280;6786;57.632;11.962;2024-03-08T11:08:57;101815.59;;;18.18;37.36
13011;BME280;6786;57.632;11.962;2024-03-08T11:11:27;101815.59;;;18.18;37.33
13011;BME280;6786;57.632;11.962;2024-03-08T11:14:01;101729.28;;;17.63;37.35
13011;BME280;6786;57.632;11.962;2024-03-08T11:16:40;101816.44;;;18.18;37.28
13011;BME280;6786;57.632;11.962;2024-03-08T11:19:26;101813.88;;;18.17;37.20
13011;BME280;6786;57.632;11.962;2024-03-08T11:22:00;101810.22;;;18.18;37.40
13011;BME280;6786;57.632;11.962;2024-03-08T11:24:36;101806.78;;;18.16;37.24
13011;BME280;6786;57.632;11.962;2024-03-08T11:27:06;101793.72;;;18.11;37.29
13011;BME280;6786;57.632;11.962;2024-03-08T11:29:37;101795.16;;;18.17;37.46
13011;BME280;6786;57.632;11.962;2024-03-08T11:32:11;101726.75;;;17.74;37.20
13011;BME280;6786;57.632;11.962;2024-03-08T11:34:46;101798.56;;;18.19;37.25
13011;BME280;6786;57.632;11.962;2024-03-08T11:37:17;101774.06;;;18.12;37.46
13011;BME280;6786;57.632;11.962;2024-03-08T11:39:49;101787.84;;;18.19;37.32
13011;BME280;6786;57.632;11.962;2024-03-08T11:42:18;101788.63;;;18.21;37.32
13011;BME280;6786;57.632;11.962;2024-03-08T11:44:47;101783.28;;;18.21;37.33
13011;BME280;6786;57.632;11.962;2024-03-08T11:47:15;101765.47;;;18.07;37.50
13011;BME280;6786;57.632;11.962;2024-03-08T11:49:45;101774.47;;;18.19;37.37
13011;BME280;6786;57.632;11.962;2024-03-08T11:52:16;101776.22;;;18.20;37.42
13011;BME280;6786;57.632;11.962;2024-03-08T11:54:52;101725.19;;;17.84;37.18
13011;BME280;6786;57.632;11.962;2024-03-08T11:57:22;101738.69;;;17.95;37.37
13011;BME280;6786;57.632;11.962;2024-03-08T11:59:51;101774.47;;;18.19;37.28
13011;BME280;6786;57.632;11.962;2024-03-08T12:02:23;101764.75;;;18.18;37.26
13011;BME280;6786;57.632;11.962;2024-03-08T12:04:57;101755.75;;;18.19;37.21
13011;BME280;6786;57.632;11.962;2024-03-08T12:07:27;101758.41;;;18.19;37.07
13011;BME280;6786;57.632;11.962;2024-03-08T12:10:15;101761.19;;;18.17;36.98
13011;BME280;6786;57.632;11.962;2024-03-08T12:12:44;101771.78;;;18.19;37.32
13011;BME280;6786;57.632;11.962;2024-03-08T12:15:15;101754.81;;;18.20;37.30
13011;BME280;6786;57.632;11.962;2024-03-08T12:17:45;101747.72;;;18.19;37.43
13011;BME280;6786;57.632;11.962;2024-03-08T12:20:18;101742.38;;;18.19;37.33
13011;BME280;6786;57.632;11.962;2024-03-08T12:22:49;101742.38;;;18.19;37.38
13011;BME280;6786;57.632;11.962;2024-03-08T12:25:19;101742.16;;;18.22;37.38
13011;BME280;6786;57.632;11.962;2024-03-08T12:27:48;101738.50;;;18.23;37.34
13011;BME280;6786;57.632;11.962;2024-03-08T12:30:21;101729.75;;;18.21;37.44
13011;BME280;6786;57.632;11.962;2024-03-08T12:32:53;101734.13;;;18.22;37.34
13011;BME280;6786;57.632;11.962;2024-03-08T12:35:26;101722.81;;;18.18;37.38
13011;BME280;6786;57.632;11.962;2024-03-08T12:37:55;101728.78;;;18.22;37.41
13011;BME280;6786;57.632;11.962;2024-03-08T12:40:28;101712.94;;;18.19;37.40
13011;BME280;6786;57.632;11.962;2024-03-08T12:42:57;101720.13;;;18.18;37.43
13011;BME280;6786;57.632;11.962;2024-03-08T12:45:25;101719.66;;;18.24;37.36
13011;BME280;6786;57.632;11.962;2024-03-08T12:47:54;101719.66;;;18.24;37.40
13011;BME280;6786;57.632;11.962;2024-03-08T12:50:25;101718.84;;;18.24;37.38
13011;BME280;6786;57.632;11.962;2024-03-08T12:52:53;101715.19;;;18.25;37.32
13011;BME280;6786;57.632;11.962;2024-03-08T12:55:22;101613.94;;;17.69;37.37
13011;BME280;6786;57.632;11.962;2024-03-08T12:57:50;101705.47;;;18.24;37.42
13011;BME280;6786;57.632;11.962;2024-03-08T13:00:20;101706.66;;;18.20;37.42
13011;BME280;6786;57.632;11.962;2024-03-08T13:02:50;101694.63;;;18.13;37.42